Time;durP1;ratioP1;P1;durP2;ratioP2;P2;SDS_P1;SDS_P2;PMS_P1;PMS_P2;Temp;Humidity;BMP_temperature;BMP_pressure;BME280_temperature;BME280_humidity;BME280_pressure;Samples;Min_cycle;Max_cycle;Signal;HPM_P1;HPM_P2
2023/05/15 00:00:21;;;;;;;;;;;;;;;12.25;83.08;101496.69;5049431;28;20277;-63
2023/05/15 00:02:47;;;;;;;;;;;;;;;12.22;83.09;101491.72;5057528;28;20498;-63
2023/05/15 00:05:13;;;;;;;;;;;;;;;12.20;83.08;101484.88;5057418;28;20004;-64
2023/05/15 00:07:39;;;;;;;;;;;;;;;12.17;83.19;101482.56;5056089;28;20000;-63
2023/05/15 00:10:04;;;;;;;;;;;;;;;12.16;83.38;101483.56;5057174;28;20307;-63
2023/05/15 00:12:29;;;;;;;;;;;;;;;12.17;83.75;101477.22;5064045;28;19982;-64
2023/05/15 00:14:54;;;;;;;;;;;;;;;12.18;83.91;101481.56;5055891;28;19921;-64
2023/05/15 00:17:20;;;;;;;;;;;;;;;12.17;83.39;101487.88;5053031;28;20008;-64
2023/05/15 00:19:45;;;;;;;;;;;;;;;12.03;83.68;101484.84;5053754;28;20324;-62
2023/05/15 00:22:10;;;;;;;;;;;;;;;11.85;83.27;101478.00;5057101;28;19920;-63
2023/05/15 00:24:37;;;;;;;;;;;;;;;11.69;84.20;101481.44;5056783;28;21293;-63
2023/05/15 00:27:03;;;;;;;;;;;;;;;11.61;83.85;101479.59;5057936;28;20443;-62
2023/05/15 00:29:28;;;;;;;;;;;;;;;11.44;84.80;101467.22;5056144;28;19927;-62
2023/05/15 00:31:53;;;;;;;;;;;;;;;11.35;85.33;101473.50;5054921;28;19928;-63
2023/05/15 00:34:19;;;;;;;;;;;;;;;11.26;85.09;101467.28;5055957;28;19927;-63
2023/05/15 00:36:44;;;;;;;;;;;;;;;11.11;85.49;101453.78;5059935;28;19918;-63
2023/05/15 00:39:09;;;;;;;;;;;;;;;11.09;86.48;101463.75;5056266;28;19920;-63
2023/05/15 00:41:35;;;;;;;;;;;;;;;11.03;86.38;101466.22;5063866;28;19978;-63
2023/05/15 00:44:01;;;;;;;;;;;;;;;10.99;87.32;101464.84;5054613;28;19927;-63
2023/05/15 00:46:27;;;;;;;;;;;;;;;10.99;87.08;101471.00;5056541;28;19920;-63
2023/05/15 00:48:52;;;;;;;;;;;;;;;10.93;86.54;101460.97;5054489;28;19939;-63
2023/05/15 00:51:17;;;;;;;;;;;;;;;10.91;87.03;101460.31;5054099;28;19916;-63
2023/05/15 00:53:43;;;;;;;;;;;;;;;10.83;87.17;101455.78;5055531;28;19923;-63
2023/05/15 00:56:09;;;;;;;;;;;;;;;10.72;87.65;101456.06;5056980;28;19964;-62
2023/05/15 00:58:35;;;;;;;;;;;;;;;10.71;88.14;101461.53;5054141;28;20416;-62
2023/05/15 01:01:01;;;;;;;;;;;;;;;10.69;88.63;101445.72;5058334;28;19921;-61
2023/05/15 01:03:26;;;;;;;;;;;;;;;10.68;89.16;101457.34;5055378;28;19920;-62
2023/05/15 01:05:52;;;;;;;;;;;;;;;10.59;88.36;101460.94;5055037;28;19920;-62
2023/05/15 01:08:25;;;;;;;;;;;;;;;10.44;88.57;101452.72;5054238;28;20011;-62
2023/05/15 01:10:50;;;;;;;;;;;;;;;10.35;88.56;101455.44;5064566;28;19927;-62
2023/05/15 01:13:18;;;;;;;;;;;;;;;10.24;88.68;101448.56;5059158;28;20321;-63
2023/05/15 01:15:43;;;;;;;;;;;;;;;10.26;88.78;101445.75;5054353;28;19936;-63
2023/05/15 01:18:08;;;;;;;;;;;;;;;10.26;88.74;101448.41;5062923;28;19916;-63
2023/05/15 01:20:39;;;;;;;;;;;;;;;10.26;89.04;101445.75;5064505;28;19916;-63
2023/05/15 01:23:10;;;;;;;;;;;;;;;10.28;89.12;101444.59;5056234;28;19917;-63
2023/05/15 01:25:55;;;;;;;;;;;;;;;10.32;89.28;101445.13;5059215;28;19916;-63
2023/05/15 01:28:46;;;;;;;;;;;;;;;10.36;89.12;101451.78;5056575;28;20141;-63
2023/05/15 01:31:15;;;;;;;;;;;;;;;10.34;89.53;101451.94;5054890;28;20316;-62
2023/05/15 01:33:42;;;;;;;;;;;;;;;10.28;89.60;101447.25;5056927;28;20321;-62
2023/05/15 01:36:17;;;;;;;;;;;;;;;10.25;89.40;101442.25;5059753;28;20004;-62
2023/05/15 01:38:47;;;;;;;;;;;;;;;10.18;89.22;101441.19;5055772;28;19947;-62
2023/05/15 01:41:30;;;;;;;;;;;;;;;10.08;88.93;101446.56;5058876;28;19916;-62
2023/05/15 01:44:05;;;;;;;;;;;;;;;9.97;89.09;101444.16;5065358;28;19927;-62
2023/05/15 01:46:33;;;;;;;;;;;;;;;9.88;89.10;101434.44;5071653;28;19924;-62
2023/05/15 01:49:00;;;;;;;;;;;;;;;9.80;89.71;101429.03;5070243;28;19923;-61
2023/05/15 01:51:26;;;;;;;;;;;;;;;9.82;90.24;101429.72;5065882;28;20014;-62
2023/05/15 01:53:52;;;;;;;;;;;;;;;9.90;90.70;101429.81;5059852;28;19947;-62
2023/05/15 01:56:18;;;;;;;;;;;;;;;9.96;90.69;101423.06;5059962;28;20658;-62
2023/05/15 01:58:45;;;;;;;;;;;;;;;9.99;91.21;101426.25;5056951;28;19923;-62
2023/05/15 02:01:12;;;;;;;;;;;;;;;10.00;91.10;101427.91;5058028;28;20011;-64
2023/05/15 02:03:38;;;;;;;;;;;;;;;10.01;91.01;101421.63;5058270;28;20304;-62
2023/05/15 02:06:04;;;;;;;;;;;;;;;10.01;91.16;101418.13;5054570;28;19924;-62
2023/05/15 02:08:31;;;;;;;;;;;;;;;10.01;91.35;101423.44;5058261;28;19921;-61
2023/05/15 02:10:58;;;;;;;;;;;;;;;10.01;91.06;101415.47;5059346;28;19920;-62
2023/05/15 02:13:24;;;;;;;;;;;;;;;9.98;91.58;101416.63;5058236;28;19932;-62
2023/05/15 02:15:49;;;;;;;;;;;;;;;10.02;91.61;101415.31;5064161;28;19916;-62
2023/05/15 02:18:14;;;;;;;;;;;;;;;9.96;91.28;101423.91;5060782;28;20405;-63
2023/05/15 02:20:39;;;;;;;;;;;;;;;9.83;91.01;101415.47;5066713;28;20011;-62
2023/05/15 02:23:05;;;;;;;;;;;;;;;9.75;91.17;101426.00;5057736;28;19995;-63
2023/05/15 02:25:42;;;;;;;;;;;;;;;9.71;91.82;101419.34;5067897;28;19974;-62
2023/05/15 02:28:09;;;;;;;;;;;;;;;9.66;91.51;101427.75;5059579;28;20473;-62
2023/05/15 02:30:42;;;;;;;;;;;;;;;9.62;91.44;101423.75;5060230;28;19921;-62
2023/05/15 02:33:13;;;;;;;;;;;;;;;9.62;91.50;101429.88;5057710;28;20455;-62
2023/05/15 02:35:51;;;;;;;;;;;;;;;9.63;91.93;101425.41;5058291;28;20443;-62
2023/05/15 02:38:19;;;;;;;;;;;;;;;9.67;91.89;101432.06;5057461;28;19939;-62
2023/05/15 02:40:46;;;;;;;;;;;;;;;9.69;92.47;101437.22;5058891;28;19917;-61
2023/05/15 02:43:12;;;;;;;;;;;;;;;9.70;92.68;101434.44;5059623;28;20011;-62
2023/05/15 02:45:38;;;;;;;;;;;;;;;9.68;92.42;101427.59;5064458;28;20051;-63
2023/05/15 02:48:04;;;;;;;;;;;;;;;9.65;92.09;101431.41;5058931;28;19921;-62
2023/05/15 02:50:29;;;;;;;;;;;;;;;9.65;92.05;101441.16;5056698;28;19924;-62
2023/05/15 02:53:01;;;;;;;;;;;;;;;9.67;92.24;101436.56;5061383;28;20371;-61
2023/05/15 02:55:26;;;;;;;;;;;;;;;9.65;92.93;101438.53;5058259;28;20019;-62
2023/05/15 02:57:51;;;;;;;;;;;;;;;9.60;92.83;101439.81;5056064;28;19930;-62
2023/05/15 03:00:17;;;;;;;;;;;;;;;9.58;93.07;101427.69;5060549;28;19924;-63
2023/05/15 03:02:42;;;;;;;;;;;;;;;9.52;92.70;101434.41;5056415;28;20328;-63
2023/05/15 03:05:07;;;;;;;;;;;;;;;9.44;92.59;101428.19;5059207;28;20532;-63
2023/05/15 03:07:33;;;;;;;;;;;;;;;9.36;92.30;101431.56;5055642;28;19973;-63
2023/05/15 03:09:58;;;;;;;;;;;;;;;9.34;92.58;101430.88;5058812;28;20424;-62
2023/05/15 03:12:23;;;;;;;;;;;;;;;9.35;92.36;101429.91;5058174;28;20293;-62
2023/05/15 03:14:48;;;;;;;;;;;;;;;9.37;92.43;101433.25;5057246;28;20003;-62
2023/05/15 03:17:13;;;;;;;;;;;;;;;9.41;92.22;101428.47;5058688;28;19916;-63
2023/05/15 03:19:39;;;;;;;;;;;;;;;9.41;92.14;101418.72;5057344;28;19931;-63
2023/05/15 03:22:04;;;;;;;;;;;;;;;9.40;92.44;101424.16;5062100;28;19916;-63
2023/05/15 03:24:29;;;;;;;;;;;;;;;9.42;92.80;101417.72;5056922;28;19996;-63
2023/05/15 03:26:54;;;;;;;;;;;;;;;9.44;93.11;101423.72;5060771;28;19927;-63
2023/05/15 03:29:19;;;;;;;;;;;;;;;9.44;92.90;101418.41;5061188;28;19928;-63
2023/05/15 03:31:44;;;;;;;;;;;;;;;9.46;92.83;101421.75;5057506;28;19916;-63
2023/05/15 03:34:10;;;;;;;;;;;;;;;9.47;93.04;101426.06;5053502;28;19917;-63
2023/05/15 03:36:35;;;;;;;;;;;;;;;9.42;93.28;101420.38;5057575;28;20014;-62
2023/05/15 03:39:00;;;;;;;;;;;;;;;9.43;93.37;101410.59;5057632;28;19936;-63
2023/05/15 03:41:26;;;;;;;;;;;;;;;9.43;93.49;101405.31;5065876;28;19940;-63
2023/05/15 03:43:51;;;;;;;;;;;;;;;9.39;93.62;101399.47;5053089;28;19913;-63
2023/05/15 03:46:17;;;;;;;;;;;;;;;9.39;93.43;101403.94;5060049;28;19912;-63
2023/05/15 03:48:42;;;;;;;;;;;;;;;9.31;93.13;101402.88;5063824;28;19920;-63
2023/05/15 03:51:07;;;;;;;;;;;;;;;9.21;92.98;101402.06;5063306;28;19924;-63
2023/05/15 03:53:32;;;;;;;;;;;;;;;9.19;93.32;101405.84;5056507;28;19924;-63
2023/05/15 03:55:57;;;;;;;;;;;;;;;9.18;93.67;101399.72;5065664;28;20030;-62
2023/05/15 03:58:22;;;;;;;;;;;;;;;9.20;93.73;101403.06;5054941;28;19924;-63
2023/05/15 04:00:48;;;;;;;;;;;;;;;9.24;93.39;101409.72;5058073;28;19924;-63
2023/05/15 04:03:13;;;;;;;;;;;;;;;9.27;93.38;101398.03;5057750;28;19923;-62
2023/05/15 04:05:38;;;;;;;;;;;;;;;9.30;93.22;101409.16;5064315;28;20421;-63
2023/05/15 04:08:03;;;;;;;;;;;;;;;9.23;93.18;101397.44;5063626;28;20369;-63
2023/05/15 04:10:30;;;;;;;;;;;;;;;9.27;93.04;101405.97;5067485;28;19931;-63
2023/05/15 04:12:56;;;;;;;;;;;;;;;9.25;93.21;101408.78;5062870;28;20814;-63
2023/05/15 04:15:22;;;;;;;;;;;;;;;9.20;92.88;101402.22;5061338;28;19962;-63
2023/05/15 04:17:48;;;;;;;;;;;;;;;9.16;92.93;101408.78;5059714;28;20046;-62
2023/05/15 04:20:15;;;;;;;;;;;;;;;9.18;93.36;101409.47;5059532;28;19988;-61
2023/05/15 04:22:41;;;;;;;;;;;;;;;9.18;93.44;101407.66;5057231;28;19920;-62
2023/05/15 04:25:06;;;;;;;;;;;;;;;9.18;93.86;101414.78;5058018;28;20343;-62
2023/05/15 04:27:32;;;;;;;;;;;;;;;9.24;93.75;101411.53;5055682;28;19920;-62
2023/05/15 04:29:57;;;;;;;;;;;;;;;9.28;94.04;101410.28;5057923;28;19920;-62
2023/05/15 04:32:22;;;;;;;;;;;;;;;9.34;94.27;101414.16;5057509;28;19929;-62
2023/05/15 04:34:47;;;;;;;;;;;;;;;9.39;94.36;101414.53;5059333;28;20021;-62
2023/05/15 04:37:13;;;;;;;;;;;;;;;9.42;94.62;101411.59;5056358;28;19927;-63
2023/05/15 04:39:38;;;;;;;;;;;;;;;9.44;94.86;101418.41;5058301;28;19920;-61
2023/05/15 04:42:03;;;;;;;;;;;;;;;9.44;94.67;101431.66;5056921;28;19920;-62
2023/05/15 04:44:28;;;;;;;;;;;;;;;9.43;94.14;101430.00;5060447;28;19999;-62
2023/05/15 04:46:53;;;;;;;;;;;;;;;9.45;94.72;101441.28;5066393;28;19924;-62
2023/05/15 04:49:19;;;;;;;;;;;;;;;9.42;95.02;101443.41;5067394;28;19975;-62
2023/05/15 04:51:44;;;;;;;;;;;;;;;9.43;95.06;101435.28;5064184;28;19917;-62
2023/05/15 04:54:09;;;;;;;;;;;;;;;9.45;95.40;101446.59;5054224;28;19917;-62
2023/05/15 04:56:35;;;;;;;;;;;;;;;9.50;95.38;101446.13;5065772;28;19916;-62
2023/05/15 04:59:00;;;;;;;;;;;;;;;9.52;95.52;101445.00;5060451;28;20524;-62
2023/05/15 05:01:25;;;;;;;;;;;;;;;9.55;95.33;101441.25;5053156;28;19962;-62
2023/05/15 05:03:50;;;;;;;;;;;;;;;9.57;95.01;101434.81;5065489;28;19927;-63
2023/05/15 05:06:15;;;;;;;;;;;;;;;9.61;95.53;101435.34;5059179;28;19916;-61
2023/05/15 05:08:40;;;;;;;;;;;;;;;9.63;95.25;101439.50;5064890;28;20413;-63
2023/05/15 05:11:06;;;;;;;;;;;;;;;9.65;95.21;101436.69;5063922;28;20408;-62
2023/05/15 05:13:31;;;;;;;;;;;;;;;9.67;95.48;101434.72;5061306;28;19920;-63
2023/05/15 05:15:56;;;;;;;;;;;;;;;9.71;95.25;101444.06;5057681;28;19917;-62
2023/05/15 05:18:21;;;;;;;;;;;;;;;9.70;95.15;101428.28;5057763;28;20427;-62
2023/05/15 05:20:46;;;;;;;;;;;;;;;9.78;95.32;101438.97;5063525;28;19917;-62
2023/05/15 05:23:13;;;;;;;;;;;;;;;9.78;95.38;101449.59;5061838;28;19979;-62
2023/05/15 05:25:39;;;;;;;;;;;;;;;9.79;95.04;101451.25;5057370;28;20016;-62
2023/05/15 05:28:04;;;;;;;;;;;;;;;9.76;95.11;101449.72;5052642;28;20000;-62
2023/05/15 05:30:29;;;;;;;;;;;;;;;9.76;94.92;101452.38;5055993;28;19966;-62
2023/05/15 05:32:54;;;;;;;;;;;;;;;9.74;94.91;101458.81;5059724;28;20016;-62
2023/05/15 05:35:19;;;;;;;;;;;;;;;9.74;94.10;101457.00;5058581;28;19913;-62
2023/05/15 05:37:45;;;;;;;;;;;;;;;9.68;94.27;101459.44;5065103;28;19963;-63
2023/05/15 05:40:10;;;;;;;;;;;;;;;9.67;94.25;101469.22;5052986;28;20023;-62
2023/05/15 05:42:35;;;;;;;;;;;;;;;9.69;94.19;101463.75;5058620;28;19920;-62
2023/05/15 05:45:00;;;;;;;;;;;;;;;9.72;94.73;101458.16;5053633;28;19920;-63
2023/05/15 05:47:25;;;;;;;;;;;;;;;9.76;94.55;101459.50;5059792;28;20385;-62
2023/05/15 05:49:51;;;;;;;;;;;;;;;9.79;95.04;101467.16;5056526;28;20029;-61
2023/05/15 05:52:16;;;;;;;;;;;;;;;9.84;94.90;101471.06;5058210;28;19920;-62
2023/05/15 05:54:41;;;;;;;;;;;;;;;9.87;95.12;101467.28;5057371;28;19924;-62
2023/05/15 05:57:08;;;;;;;;;;;;;;;9.85;94.87;101462.13;5056925;28;20036;-62
2023/05/15 05:59:33;;;;;;;;;;;;;;;9.81;94.59;101463.38;5058982;28;19924;-63
2023/05/15 06:01:58;;;;;;;;;;;;;;;9.82;94.30;101462.38;5059716;28;19945;-62
2023/05/15 06:04:24;;;;;;;;;;;;;;;9.90;94.91;101465.16;5066334;28;19913;-62
2023/05/15 06:06:49;;;;;;;;;;;;;;;9.95;94.84;101467.34;5065179;28;20010;-63
2023/05/15 06:09:14;;;;;;;;;;;;;;;9.99;94.49;101468.72;5061026;28;19921;-63
2023/05/15 06:11:39;;;;;;;;;;;;;;;10.00;94.28;101466.88;5058365;28;20389;-62
2023/05/15 06:14:07;;;;;;;;;;;;;;;9.97;93.92;101470.69;5065855;28;19926;-62
2023/05/15 06:16:32;;;;;;;;;;;;;;;10.02;94.54;101472.88;5062601;28;19920;-62
2023/05/15 06:18:57;;;;;;;;;;;;;;;10.11;94.45;101471.94;5058463;28;20503;-62
2023/05/15 06:21:22;;;;;;;;;;;;;;;10.26;94.51;101477.59;5059608;28;19960;-63
2023/05/15 06:23:48;;;;;;;;;;;;;;;10.38;94.87;101471.88;5070233;28;19924;-63
2023/05/15 06:26:13;;;;;;;;;;;;;;;10.49;94.53;101471.66;5069622;28;19916;-62
2023/05/15 06:28:38;;;;;;;;;;;;;;;10.54;94.22;101476.50;5056784;28;19959;-63
2023/05/15 06:31:03;;;;;;;;;;;;;;;10.53;94.23;101467.72;5064866;28;19917;-63
2023/05/15 06:33:28;;;;;;;;;;;;;;;10.55;93.74;101467.56;5069253;28;19924;-62
2023/05/15 06:35:54;;;;;;;;;;;;;;;10.63;94.21;101466.78;5068289;28;20041;-63
2023/05/15 06:38:19;;;;;;;;;;;;;;;10.53;93.43;101457.09;5061331;28;20381;-61
2023/05/15 06:40:44;;;;;;;;;;;;;;;10.61;93.28;101472.25;5066144;28;20011;-62
2023/05/15 06:43:09;;;;;;;;;;;;;;;10.63;93.27;101467.59;5067305;28;20394;-62
2023/05/15 06:45:34;;;;;;;;;;;;;;;10.65;92.82;101470.09;5069795;28;19925;-63
2023/05/15 06:48:00;;;;;;;;;;;;;;;10.68;92.49;101465.31;5066568;28;20290;-64
2023/05/15 06:50:25;;;;;;;;;;;;;;;10.75;92.50;101458.41;5069558;28;19921;-63
2023/05/15 06:52:50;;;;;;;;;;;;;;;10.88;92.30;101467.75;5069691;28;19923;-63
2023/05/15 06:55:15;;;;;;;;;;;;;;;11.00;92.74;101459.38;5070624;28;20294;-61
2023/05/15 06:57:40;;;;;;;;;;;;;;;11.12;92.72;101455.44;5065192;28;19921;-61
2023/05/15 07:00:06;;;;;;;;;;;;;;;11.22;92.01;101457.97;5069492;28;20571;-62
2023/05/15 07:02:31;;;;;;;;;;;;;;;11.38;91.91;101460.72;5065630;28;21241;-61
2023/05/15 07:04:56;;;;;;;;;;;;;;;11.53;91.61;101457.41;5065106;28;19916;-62
2023/05/15 07:07:21;;;;;;;;;;;;;;;11.64;91.42;101467.78;5061375;28;19938;-63
2023/05/15 07:09:49;;;;;;;;;;;;;;;11.77;90.94;101470.78;5063408;28;19921;-63
2023/05/15 07:12:14;;;;;;;;;;;;;;;11.86;89.91;101471.69;5062008;28;20495;-62
2023/05/15 07:14:39;;;;;;;;;;;;;;;11.88;89.01;101475.03;5056713;28;19916;-63
2023/05/15 07:17:04;;;;;;;;;;;;;;;11.91;89.13;101469.38;5057665;28;20010;-62
2023/05/15 07:19:30;;;;;;;;;;;;;;;11.95;89.35;101470.72;5057942;28;19919;-63
2023/05/15 07:21:55;;;;;;;;;;;;;;;12.00;88.73;101466.56;5061608;28;20012;-62
2023/05/15 07:24:20;;;;;;;;;;;;;;;12.00;88.47;101465.72;5065013;28;20099;-63
2023/05/15 07:26:45;;;;;;;;;;;;;;;12.05;88.17;101468.72;5060510;28;19916;-63
2023/05/15 07:29:10;;;;;;;;;;;;;;;12.11;88.11;101473.38;5056310;28;20304;-63
2023/05/15 07:31:37;;;;;;;;;;;;;;;12.23;87.99;101468.56;5055352;28;19924;-63
2023/05/15 07:34:02;;;;;;;;;;;;;;;12.21;87.15;101468.75;5062084;28;20324;-63
2023/05/15 07:36:27;;;;;;;;;;;;;;;12.20;86.84;101461.75;5056843;28;20024;-63
2023/05/15 07:38:52;;;;;;;;;;;;;;;12.15;86.95;101453.44;5061435;28;20647;-63
2023/05/15 07:41:17;;;;;;;;;;;;;;;12.20;87.03;101456.44;5069785;28;20002;-63
2023/05/15 07:43:43;;;;;;;;;;;;;;;12.27;86.83;101451.25;5059564;28;19919;-63
2023/05/15 07:46:08;;;;;;;;;;;;;;;12.32;86.60;101451.59;5054376;28;20407;-64
2023/05/15 07:48:33;;;;;;;;;;;;;;;12.23;86.22;101455.25;5064540;28;19924;-63
2023/05/15 07:50:58;;;;;;;;;;;;;;;12.19;85.86;101453.94;5067495;28;20309;-63
2023/05/15 07:53:23;;;;;;;;;;;;;;;12.13;85.15;101450.06;5066630;28;19916;-64
2023/05/15 07:55:48;;;;;;;;;;;;;;;12.12;84.83;101452.91;5067579;28;19965;-64
2023/05/15 07:58:14;;;;;;;;;;;;;;;12.18;84.91;101446.94;5067617;28;19924;-64
2023/05/15 08:00:39;;;;;;;;;;;;;;;12.27;84.93;101438.78;5065686;28;19920;-63
2023/05/15 08:03:04;;;;;;;;;;;;;;;12.34;84.76;101442.44;5068331;28;20400;-64
2023/05/15 08:05:29;;;;;;;;;;;;;;;12.37;84.49;101442.09;5067767;28;19944;-63
2023/05/15 08:07:55;;;;;;;;;;;;;;;12.43;84.34;101431.75;5067633;28;20409;-63
2023/05/15 08:10:20;;;;;;;;;;;;;;;12.50;84.18;101430.13;5068799;28;19916;-64
2023/05/15 08:12:47;;;;;;;;;;;;;;;12.64;84.28;101437.41;5065556;28;19916;-63
2023/05/15 08:15:12;;;;;;;;;;;;;;;12.78;83.90;101439.38;5056775;28;19923;-63
2023/05/15 08:17:38;;;;;;;;;;;;;;;12.90;84.16;101445.19;5061278;28;20475;-63
2023/05/15 08:20:03;;;;;;;;;;;;;;;13.07;83.92;101448.63;5062044;28;19924;-63
2023/05/15 08:22:29;;;;;;;;;;;;;;;13.17;83.24;101438.59;5066645;28;19924;-62
2023/05/15 08:24:54;;;;;;;;;;;;;;;13.27;83.12;101436.56;5067091;28;19924;-63
2023/05/15 08:27:19;;;;;;;;;;;;;;;13.30;82.41;101434.41;5066611;28;19955;-63
2023/05/15 08:29:45;;;;;;;;;;;;;;;13.40;81.46;101438.69;5067458;28;19920;-63
2023/05/15 08:32:10;;;;;;;;;;;;;;;13.50;81.39;101450.81;5064973;28;19923;-64
2023/05/15 08:34:35;;;;;;;;;;;;;;;13.63;81.63;101448.41;5060973;28;19917;-61
2023/05/15 08:37:00;;;;;;;;;;;;;;;13.78;81.40;101448.47;5058070;28;20405;-63
2023/05/15 08:39:25;;;;;;;;;;;;;;;13.92;81.57;101446.91;5067262;28;19995;-62
2023/05/15 08:42:04;;;;;;;;;;;;;;;14.08;81.34;101441.44;5064309;28;20305;-62
2023/05/15 08:44:29;;;;;;;;;;;;;;;14.23;80.70;101447.66;5058772;28;20375;-62
2023/05/15 08:46:55;;;;;;;;;;;;;;;14.36;80.02;101446.22;5065579;28;19921;-63
2023/05/15 08:49:28;;;;;;;;;;;;;;;14.51;79.74;101460.47;5065966;28;19974;-63
2023/05/15 08:51:54;;;;;;;;;;;;;;;14.51;78.62;101455.13;5063453;28;19923;-62
2023/05/15 08:54:19;;;;;;;;;;;;;;;14.41;78.74;101443.81;5061290;28;19916;-63
2023/05/15 08:56:44;;;;;;;;;;;;;;;14.42;78.99;101446.31;5064399;28;20077;-63
2023/05/15 08:59:10;;;;;;;;;;;;;;;14.53;78.70;101440.56;5059046;28;19924;-63
2023/05/15 09:01:35;;;;;;;;;;;;;;;14.70;78.35;101435.06;5067201;28;19912;-62
2023/05/15 09:04:00;;;;;;;;;;;;;;;14.78;78.18;101440.34;5050105;28;19920;-62
2023/05/15 09:06:26;;;;;;;;;;;;;;;14.86;77.18;101442.91;5061898;28;20396;-62
2023/05/15 09:08:54;;;;;;;;;;;;;;;14.86;76.62;101438.41;5061648;28;19924;-62
2023/05/15 09:11:20;;;;;;;;;;;;;;;14.92;75.96;101436.81;5059710;28;19962;-63
2023/05/15 09:13:46;;;;;;;;;;;;;;;15.04;75.18;101440.72;5063750;28;20348;-62
2023/05/15 09:16:11;;;;;;;;;;;;;;;15.11;75.26;101440.81;5054983;28;20015;-63
2023/05/15 09:18:37;;;;;;;;;;;;;;;15.07;74.63;101439.50;5065279;28;19923;-62
2023/05/15 09:21:22;;;;;;;;;;;;;;;15.07;75.00;101444.88;5064326;28;20434;-63
2023/05/15 09:23:48;;;;;;;;;;;;;;;15.09;74.84;101449.00;5053733;28;19913;-63
2023/05/15 09:26:13;;;;;;;;;;;;;;;15.03;75.03;101449.72;5056560;28;19920;-63
2023/05/15 09:28:38;;;;;;;;;;;;;;;14.98;74.63;101448.63;5052005;28;19912;-63
2023/05/15 09:31:04;;;;;;;;;;;;;;;14.92;73.82;101450.19;5057971;28;20015;-63
2023/05/15 09:33:33;;;;;;;;;;;;;;;14.90;73.96;101444.22;5056224;28;19923;-63
2023/05/15 09:35:59;;;;;;;;;;;;;;;14.92;74.34;101449.38;5053467;28;19912;-63
2023/05/15 09:38:24;;;;;;;;;;;;;;;14.97;74.57;101445.13;5059950;28;19920;-62
2023/05/15 09:40:50;;;;;;;;;;;;;;;15.00;74.21;101444.75;5053840;28;19939;-61
2023/05/15 09:43:15;;;;;;;;;;;;;;;15.00;74.32;101449.28;5056096;28;19913;-62
2023/05/15 09:45:41;;;;;;;;;;;;;;;14.95;74.42;101451.66;5051511;28;19959;-62
2023/05/15 09:48:07;;;;;;;;;;;;;;;14.96;74.46;101454.16;5049660;28;19917;-62
2023/05/15 09:50:34;;;;;;;;;;;;;;;15.01;74.78;101449.09;5066440;28;19920;-62
2023/05/15 09:52:59;;;;;;;;;;;;;;;15.01;74.76;101446.41;5055756;28;19916;-62
2023/05/15 09:55:24;;;;;;;;;;;;;;;15.03;74.46;101455.06;5061406;28;19923;-62
2023/05/15 09:58:10;;;;;;;;;;;;;;;15.02;74.90;101457.94;5062649;28;19916;-62
2023/05/15 10:00:35;;;;;;;;;;;;;;;14.97;75.49;101453.16;5058877;28;19913;-62
2023/05/15 10:03:04;;;;;;;;;;;;;;;14.88;76.03;101463.09;5070711;28;20038;-62
2023/05/15 10:05:30;;;;;;;;;;;;;;;14.87;76.20;101460.63;5061840;28;19921;-62
2023/05/15 10:07:56;;;;;;;;;;;;;;;14.84;75.72;101469.84;5067539;28;19989;-62
2023/05/15 10:10:21;;;;;;;;;;;;;;;14.89;76.18;101469.28;5061427;28;19921;-62
2023/05/15 10:12:49;;;;;;;;;;;;;;;14.92;75.93;101470.75;5068964;28;19916;-61
2023/05/15 10:15:14;;;;;;;;;;;;;;;14.92;75.78;101468.09;5062536;28;19924;-62
2023/05/15 10:17:41;;;;;;;;;;;;;;;14.91;75.64;101471.78;5058539;28;19919;-62
2023/05/15 10:20:07;;;;;;;;;;;;;;;14.88;75.76;101467.63;5063973;28;19920;-62
2023/05/15 10:22:35;;;;;;;;;;;;;;;14.74;76.13;101469.25;5066194;28;19932;-63
2023/05/15 10:25:19;;;;;;;;;;;;;;;14.64;76.25;101470.53;5056605;28;20058;-62
2023/05/15 10:27:46;;;;;;;;;;;;;;;14.52;76.84;101467.50;5066490;28;19923;-62
2023/05/15 10:30:12;;;;;;;;;;;;;;;14.45;77.24;101470.03;5058469;28;19917;-62
2023/05/15 10:32:40;;;;;;;;;;;;;;;14.39;77.71;101464.56;5060922;28;19959;-63
2023/05/15 10:35:06;;;;;;;;;;;;;;;14.41;77.85;101463.34;5066186;28;19999;-62
2023/05/15 10:37:31;;;;;;;;;;;;;;;14.37;77.67;101474.59;5066378;28;20003;-62
2023/05/15 10:39:57;;;;;;;;;;;;;;;14.32;77.97;101466.28;5064045;28;19974;-62
2023/05/15 10:42:24;;;;;;;;;;;;;;;14.19;78.33;101464.22;5069742;28;19928;-62
2023/05/15 10:44:50;;;;;;;;;;;;;;;14.16;78.59;101468.06;5066349;28;19912;-63
2023/05/15 10:47:16;;;;;;;;;;;;;;;14.18;78.65;101470.59;5066536;28;20011;-63
2023/05/15 10:49:41;;;;;;;;;;;;;;;14.21;79.30;101465.72;5060258;28;20062;-63
2023/05/15 10:52:07;;;;;;;;;;;;;;;14.24;78.76;101468.03;5067092;28;20385;-63
2023/05/15 10:54:33;;;;;;;;;;;;;;;14.22;79.20;101467.38;5064215;28;19922;-62
2023/05/15 10:56:59;;;;;;;;;;;;;;;14.18;79.50;101462.56;5055891;28;19912;-63
2023/05/15 10:59:31;;;;;;;;;;;;;;;14.17;79.68;101463.59;5067898;28;19923;-63
2023/05/15 11:01:56;;;;;;;;;;;;;;;14.18;79.40;101468.75;5069892;28;20007;-63
2023/05/15 11:04:22;;;;;;;;;;;;;;;14.13;79.40;101467.59;5061537;28;20043;-62
2023/05/15 11:06:48;;;;;;;;;;;;;;;14.13;79.50;101467.59;5070087;28;19923;-62
2023/05/15 11:09:25;;;;;;;;;;;;;;;14.12;79.71;101471.28;5064111;28;19932;-62
2023/05/15 11:11:51;;;;;;;;;;;;;;;14.14;79.93;101467.41;5066436;28;20003;-62
2023/05/15 11:14:16;;;;;;;;;;;;;;;14.14;79.95;101463.91;5067034;28;20334;-62
2023/05/15 11:16:53;;;;;;;;;;;;;;;14.14;79.69;101461.25;5061285;28;19927;-62
2023/05/15 11:19:20;;;;;;;;;;;;;;;14.13;79.88;101451.56;5063688;28;19961;-63
2023/05/15 11:21:45;;;;;;;;;;;;;;;14.11;79.95;101461.59;5061294;28;19923;-62
2023/05/15 11:24:11;;;;;;;;;;;;;;;14.10;80.01;101457.28;5066779;28;19917;-62
2023/05/15 11:26:39;;;;;;;;;;;;;;;14.09;79.96;101458.28;5063809;28;20406;-62
2023/05/15 11:29:18;;;;;;;;;;;;;;;14.05;80.36;101460.47;5066091;28;19936;-63
2023/05/15 11:31:43;;;;;;;;;;;;;;;14.04;80.65;101463.31;5065232;28;20450;-63
2023/05/15 11:34:08;;;;;;;;;;;;;;;14.04;80.66;101460.66;5064358;28;19916;-63
2023/05/15 11:36:38;;;;;;;;;;;;;;;13.93;80.67;101462.75;5063738;28;19925;-63
2023/05/15 11:39:08;;;;;;;;;;;;;;;13.81;80.66;101463.31;5065580;28;20437;-63
2023/05/15 11:41:33;;;;;;;;;;;;;;;13.67;81.11;101462.22;5062324;28;19943;-64
2023/05/15 11:43:58;;;;;;;;;;;;;;;13.59;81.32;101467.63;5062275;28;20410;-63
2023/05/15 11:46:24;;;;;;;;;;;;;;;13.51;82.06;101457.81;5066785;28;19969;-63
2023/05/15 11:48:49;;;;;;;;;;;;;;;13.49;82.11;101458.97;5059625;28;19969;-63
2023/05/15 11:51:26;;;;;;;;;;;;;;;13.50;81.99;101455.31;5066798;28;19924;-63
2023/05/15 11:53:52;;;;;;;;;;;;;;;13.54;82.72;101456.63;5066126;28;19916;-63
2023/05/15 11:56:22;;;;;;;;;;;;;;;13.59;82.91;101463.13;5067963;28;19912;-63
2023/05/15 11:58:51;;;;;;;;;;;;;;;13.68;83.10;101463.06;5067787;28;19912;-63
2023/05/15 12:01:16;;;;;;;;;;;;;;;13.71;83.13;101460.03;5052526;28;20410;-62
2023/05/15 12:03:42;;;;;;;;;;;;;;;13.63;83.27;101452.91;5055054;28;19931;-62
2023/05/15 12:06:08;;;;;;;;;;;;;;;13.70;83.62;101456.53;5063608;28;19913;-62
2023/05/15 12:08:36;;;;;;;;;;;;;;;13.70;83.28;101458.38;5068891;28;19965;-62
2023/05/15 12:11:02;;;;;;;;;;;;;;;13.66;83.43;101460.56;5065521;28;19921;-63
2023/05/15 12:13:28;;;;;;;;;;;;;;;13.63;83.32;101452.91;5060681;28;20746;-62
2023/05/15 12:15:54;;;;;;;;;;;;;;;13.67;83.80;101450.72;5067031;28;19912;-63
2023/05/15 12:18:19;;;;;;;;;;;;;;;13.73;83.70;101453.53;5067009;28;19920;-62
2023/05/15 12:20:45;;;;;;;;;;;;;;;13.80;83.85;101456.31;5063326;28;20368;-63
2023/05/15 12:23:14;;;;;;;;;;;;;;;13.82;83.67;101451.63;5067144;28;20478;-63
2023/05/15 12:25:39;;;;;;;;;;;;;;;13.82;83.88;101444.44;5061536;28;19927;-63
2023/05/15 12:28:05;;;;;;;;;;;;;;;13.81;83.84;101448.13;5064168;28;20011;-63
2023/05/15 12:30:31;;;;;;;;;;;;;;;13.78;84.31;101450.31;5062836;28;20431;-63
2023/05/15 12:32:59;;;;;;;;;;;;;;;13.75;84.19;101450.66;5064153;28;19924;-63
2023/05/15 12:35:25;;;;;;;;;;;;;;;13.73;83.80;101450.03;5066323;28;20003;-63